Time;durP1;ratioP1;P1;durP2;ratioP2;P2;SDS_P1;SDS_P2;PMS_P1;PMS_P2;Temp;Humidity;BMP_temperature;BMP_pressure;BME280_temperature;BME280_humidity;BME280_pressure;Samples;Min_cycle;Max_cycle;Signal;HPM_P1;HPM_P2
2024/03/17 00:01:04;;;;;;;0.40;0.30;;;3.20;99.90;;;;;;4987963;28;20049;-74
2024/03/17 00:03:31;;;;;;;0.32;0.20;;;3.20;99.90;;;;;;5008250;28;20482;-75
2024/03/17 00:06:00;;;;;;;0.65;0.20;;;3.20;99.90;;;;;;4992528;28;20069;-74
2024/03/17 00:08:27;;;;;;;1.20;0.40;;;3.20;99.90;;;;;;4990912;28;20045;-75
2024/03/17 00:10:56;;;;;;;1.33;0.35;;;3.10;99.90;;;;;;4990744;28;20443;-76
2024/03/17 00:13:22;;;;;;;0.15;0.15;;;3.10;99.90;;;;;;4990264;28;20042;-75
2024/03/17 00:15:51;;;;;;;0.20;0.17;;;3.10;99.90;;;;;;4998382;28;20038;-75
2024/03/17 00:18:17;;;;;;;0.43;0.20;;;3.00;99.90;;;;;;5008083;28;20046;-75
2024/03/17 00:20:43;;;;;;;2.88;0.55;;;3.00;99.90;;;;;;4991804;28;21299;-75
2024/03/17 00:23:11;;;;;;;7.90;0.68;;;3.00;99.90;;;;;;5007014;28;20031;-75
2024/03/17 00:25:38;;;;;;;0.40;0.22;;;3.00;99.90;;;;;;4990115;28;20046;-75
2024/03/17 00:28:04;;;;;;;0.15;0.10;;;3.00;99.90;;;;;;4990138;28;20117;-74
2024/03/17 00:30:31;;;;;;;0.13;0.10;;;3.00;99.90;;;;;;4986013;28;20026;-75
2024/03/17 00:32:58;;;;;;;1.00;0.30;;;2.90;99.90;;;;;;4990380;28;20057;-75
2024/03/17 00:35:24;;;;;;;0.55;0.10;;;2.90;99.90;;;;;;4985521;28;20057;-74
2024/03/17 00:37:50;;;;;;;1.05;0.55;;;2.90;99.90;;;;;;4986995;28;20067;-74
2024/03/17 00:40:17;;;;;;;0.17;0.17;;;2.90;99.90;;;;;;4990695;28;20042;-75
2024/03/17 00:42:44;;;;;;;0.68;0.50;;;2.80;99.90;;;;;;4988293;28;20425;-75
2024/03/17 00:45:11;;;;;;;2.47;0.20;;;2.80;99.90;;;;;;4997987;28;20129;-74
2024/03/17 00:47:37;;;;;;;3.20;0.47;;;2.80;99.90;;;;;;4988176;28;20120;-75
2024/03/17 00:50:06;;;;;;;3.83;0.75;;;2.80;99.90;;;;;;4990653;28;20445;-75
2024/03/17 00:52:32;;;;;;;0.70;0.20;;;2.80;99.90;;;;;;4987713;28;20054;-75
2024/03/17 00:54:58;;;;;;;0.50;0.20;;;2.80;99.90;;;;;;4989148;28;20050;-75
2024/03/17 00:57:23;;;;;;;0.40;0.20;;;2.70;99.90;;;;;;4984471;28;20047;-75
2024/03/17 00:59:50;;;;;;;0.85;0.45;;;2.70;99.90;;;;;;4966697;28;20043;-75
2024/03/17 01:02:16;;;;;;;3.58;0.55;;;2.70;99.90;;;;;;4990114;28;20077;-75
2024/03/17 01:04:45;;;;;;;1.40;0.75;;;2.70;99.90;;;;;;4990737;28;20050;-75
2024/03/17 01:07:12;;;;;;;1.45;0.35;;;2.70;99.90;;;;;;4989876;28;20518;-74
2024/03/17 01:09:38;;;;;;;0.10;0.10;;;2.70;99.90;;;;;;5006316;28;20046;-74
2024/03/17 01:12:04;;;;;;;0.20;0.20;;;2.70;99.90;;;;;;4982887;28;20049;-74
2024/03/17 01:14:30;;;;;;;0.60;0.35;;;2.60;99.90;;;;;;4975874;28;20081;-74
2024/03/17 01:16:57;;;;;;;0.73;0.30;;;2.70;99.90;;;;;;4989682;28;20041;-74
2024/03/17 01:19:23;;;;;;;0.30;0.30;;;2.70;99.90;;;;;;4989674;28;20400;-74
2024/03/17 01:21:49;;;;;;;3.20;0.40;;;2.60;99.90;;;;;;4977261;28;20517;-74
2024/03/17 01:24:14;;;;;;;0.40;0.20;;;2.60;99.90;;;;;;4989750;28;20042;-74
2024/03/17 01:26:40;;;;;;;0.30;0.28;;;2.60;99.90;;;;;;4987527;28;20046;-74
2024/03/17 01:29:08;;;;;;;0.70;0.17;;;2.60;99.90;;;;;;5004977;28;20060;-74
2024/03/17 01:31:34;;;;;;;0.68;0.20;;;2.60;99.90;;;;;;4990240;28;20038;-74
2024/03/17 01:34:01;;;;;;;0.85;0.40;;;2.50;99.90;;;;;;4989753;28;20153;-74
2024/03/17 01:36:26;;;;;;;0.60;0.43;;;2.50;99.90;;;;;;4986815;28;20041;-74
2024/03/17 01:38:52;;;;;;;1.75;0.45;;;2.50;99.90;;;;;;4987174;28;20038;-74
2024/03/17 01:41:18;;;;;;;0.13;0.10;;;2.50;99.90;;;;;;4975367;28;20068;-74
2024/03/17 01:43:43;;;;;;;0.17;0.10;;;2.50;99.90;;;;;;4974282;28;20073;-75
2024/03/17 01:46:15;;;;;;;0.15;0.13;;;2.50;99.90;;;;;;4973291;28;20091;-74
2024/03/17 01:48:41;;;;;;;0.73;0.22;;;2.50;99.90;;;;;;4990186;28;20398;-74
2024/03/17 01:51:08;;;;;;;0.93;0.40;;;2.40;99.90;;;;;;4987885;28;20046;-74
2024/03/17 01:53:35;;;;;;;1.13;0.40;;;2.40;99.90;;;;;;4974817;28;20038;-74
2024/03/17 01:56:02;;;;;;;1.38;0.28;;;2.40;99.90;;;;;;4989282;28;20168;-74
2024/03/17 01:58:29;;;;;;;0.47;0.47;;;2.40;99.90;;;;;;4989856;28;20038;-74
2024/03/17 02:00:56;;;;;;;1.52;0.45;;;2.40;99.90;;;;;;5000786;28;20141;-74
2024/03/17 02:03:22;;;;;;;0.30;0.20;;;2.40;99.90;;;;;;4987053;28;20046;-74
2024/03/17 02:05:48;;;;;;;0.28;0.15;;;2.30;99.90;;;;;;4987334;28;20501;-74
2024/03/17 02:08:14;;;;;;;0.10;0.03;;;2.30;99.90;;;;;;5005743;28;20074;-74
2024/03/17 02:10:40;;;;;;;2.30;0.30;;;2.30;99.90;;;;;;4999796;28;20140;-74
2024/03/17 02:13:05;;;;;;;0.60;0.10;;;2.30;99.90;;;;;;5004641;28;20137;-75
2024/03/17 02:15:32;;;;;;;2.47;0.75;;;2.20;99.90;;;;;;4989612;28;20034;-74
2024/03/17 02:17:58;;;;;;;2.35;0.40;;;2.20;99.90;;;;;;4989266;28;20048;-74
2024/03/17 02:23:09;;;;;;;0.15;0.10;;;2.20;99.90;;;;;;4997159;28;20148;-73
2024/03/17 02:25:34;;;;;;;1.02;0.32;;;2.20;99.90;;;;;;4988283;28;20131;-75
2024/03/17 02:28:01;;;;;;;0.52;0.35;;;2.20;99.90;;;;;;4995466;28;20052;-75
2024/03/17 02:30:27;;;;;;;0.05;0.03;;;2.20;99.90;;;;;;4989487;28;20038;-76
2024/03/17 02:32:56;;;;;;;1.95;0.57;;;2.20;99.90;;;;;;4989272;28;20405;-75
2024/03/17 02:35:23;;;;;;;0.32;0.28;;;2.10;99.90;;;;;;4989782;28;20140;-75
2024/03/17 02:37:49;;;;;;;0.38;0.13;;;2.10;99.90;;;;;;4987154;28;20034;-74
2024/03/17 02:40:15;;;;;;;0.70;0.50;;;2.10;99.90;;;;;;4988319;28;20108;-74
2024/03/17 02:42:42;;;;;;;0.80;0.52;;;2.10;99.90;;;;;;4972855;28;20229;-74
2024/03/17 02:45:08;;;;;;;1.30;0.35;;;2.10;99.90;;;;;;4988993;28;20050;-74
2024/03/17 02:47:34;;;;;;;0.80;0.50;;;2.10;99.90;;;;;;5005153;28;20057;-74
2024/03/17 02:50:01;;;;;;;0.57;0.30;;;2.10;99.90;;;;;;4988672;28;20054;-74
2024/03/17 02:52:26;;;;;;;1.45;0.80;;;2.10;99.90;;;;;;4998908;28;20156;-74
2024/03/17 02:54:53;;;;;;;0.47;0.43;;;2.00;99.90;;;;;;5003696;28;20505;-75
2024/03/17 02:57:19;;;;;;;1.27;0.68;;;2.10;99.90;;;;;;4986525;28;20059;-74
2024/03/17 02:59:46;;;;;;;1.23;0.20;;;2.10;99.90;;;;;;4983179;28;20097;-75
2024/03/17 03:02:12;;;;;;;0.25;0.17;;;2.10;99.90;;;;;;4983237;28;20438;-74
2024/03/17 03:04:37;;;;;;;2.17;0.70;;;2.10;99.90;;;;;;4998285;28;20217;-74
2024/03/17 03:07:03;;;;;;;1.40;0.55;;;2.10;99.90;;;;;;4987271;28;20121;-74
2024/03/17 03:09:32;;;;;;;1.13;0.63;;;2.10;99.90;;;;;;4983007;28;20439;-74
2024/03/17 03:12:04;;;;;;;0.45;0.30;;;2.10;99.90;;;;;;4971805;28;20050;-74
2024/03/17 03:14:30;;;;;;;1.10;0.77;;;2.10;99.90;;;;;;4999074;28;20039;-74
2024/03/17 03:16:56;;;;;;;1.55;0.70;;;2.10;99.90;;;;;;5004525;28;20030;-74
2024/03/17 03:19:22;;;;;;;2.70;0.80;;;2.10;99.90;;;;;;4987267;28;20536;-74
2024/03/17 03:21:48;;;;;;;0.95;0.28;;;2.00;99.90;;;;;;4970905;28;20240;-74
2024/03/17 03:24:17;;;;;;;1.13;0.40;;;2.10;99.90;;;;;;5000155;28;20038;-74
2024/03/17 03:26:43;;;;;;;3.17;0.82;;;2.10;99.90;;;;;;4976448;28;20137;-74
2024/03/17 03:29:14;;;;;;;0.65;0.45;;;2.10;99.90;;;;;;4972300;28;20509;-75
2024/03/17 03:31:40;;;;;;;0.43;0.25;;;2.10;99.90;;;;;;4987522;28;20046;-74
2024/03/17 03:34:07;;;;;;;0.40;0.30;;;2.00;99.90;;;;;;4969538;28;20505;-74
2024/03/17 03:36:35;;;;;;;7.05;0.82;;;2.10;99.90;;;;;;4988400;28;20117;-74
2024/03/17 03:39:01;;;;;;;0.88;0.35;;;2.10;99.90;;;;;;4986555;28;21001;-74
2024/03/17 03:41:27;;;;;;;1.50;0.40;;;2.10;99.90;;;;;;4981997;28;20447;-74
2024/03/17 03:43:53;;;;;;;0.47;0.47;;;2.10;99.90;;;;;;5002672;28;20046;-74
2024/03/17 03:46:20;;;;;;;4.82;0.38;;;2.10;99.90;;;;;;5002941;28;20057;-74
2024/03/17 03:48:46;;;;;;;1.23;0.82;;;2.20;99.90;;;;;;5002243;28;20122;-74
2024/03/17 03:51:11;;;;;;;1.42;0.60;;;2.20;99.90;;;;;;5004269;28;20428;-74
2024/03/17 03:53:38;;;;;;;0.93;0.47;;;2.20;99.90;;;;;;4988517;28;20050;-74
2024/03/17 03:56:10;;;;;;;1.65;0.60;;;2.20;99.90;;;;;;4981065;28;20062;-74
2024/03/17 03:58:37;;;;;;;3.85;0.90;;;2.20;99.90;;;;;;4987065;28;20053;-74
2024/03/17 04:01:11;;;;;;;2.95;0.40;;;2.20;99.90;;;;;;4988039;28;20101;-74
2024/03/17 04:03:37;;;;;;;0.30;0.28;;;2.20;99.90;;;;;;4985246;28;20046;-74
2024/03/17 04:06:10;;;;;;;1.38;0.80;;;2.30;99.90;;;;;;4970406;28;20060;-74
2024/03/17 04:08:37;;;;;;;1.15;0.65;;;2.20;99.90;;;;;;4985660;28;20057;-74
2024/03/17 04:11:04;;;;;;;2.88;0.75;;;2.30;99.90;;;;;;5003225;28;20050;-74
2024/03/17 04:13:30;;;;;;;2.05;1.05;;;2.30;99.90;;;;;;4986701;28;20034;-74
2024/03/17 04:15:57;;;;;;;3.72;1.10;;;2.40;99.90;;;;;;4986801;28;20533;-74
2024/03/17 04:18:24;;;;;;;0.85;0.45;;;2.40;99.90;;;;;;4982384;28;20074;-74
2024/03/17 04:20:53;;;;;;;0.50;0.43;;;2.50;99.90;;;;;;5004531;28;20042;-74
2024/03/17 04:23:23;;;;;;;0.75;0.57;;;2.60;99.90;;;;;;4987959;28;20037;-74
2024/03/17 04:25:51;;;;;;;1.00;0.80;;;2.60;99.90;;;;;;4984081;28;20038;-74
2024/03/17 04:28:17;;;;;;;0.38;0.20;;;2.60;99.90;;;;;;4986272;28;20049;-74
2024/03/17 04:30:43;;;;;;;3.80;0.77;;;2.70;99.90;;;;;;4972937;28;20046;-74
2024/03/17 04:33:11;;;;;;;1.20;0.88;;;2.70;99.90;;;;;;4985036;28;20168;-74
2024/03/17 04:35:37;;;;;;;3.13;1.17;;;2.70;99.90;;;;;;4987917;28;20146;-75
2024/03/17 04:38:03;;;;;;;1.50;0.93;;;2.80;99.90;;;;;;4986230;28;20045;-74
2024/03/17 04:40:30;;;;;;;0.45;0.40;;;2.80;99.90;;;;;;4988004;28;20430;-75
2024/03/17 04:42:56;;;;;;;0.30;0.30;;;2.90;99.90;;;;;;4986884;28;20050;-74
2024/03/17 04:45:21;;;;;;;3.22;0.47;;;2.90;99.90;;;;;;5002347;28;20056;-74
2024/03/17 04:47:47;;;;;;;0.45;0.40;;;3.00;99.90;;;;;;5005888;28;20050;-74
2024/03/17 04:50:13;;;;;;;0.60;0.38;;;3.00;99.90;;;;;;4991371;28;20053;-73
2024/03/17 04:52:39;;;;;;;0.77;0.30;;;3.00;99.90;;;;;;4988038;28;20074;-73
2024/03/17 04:55:04;;;;;;;5.28;1.05;;;3.10;99.90;;;;;;4988628;28;20030;-74
2024/03/17 04:57:30;;;;;;;0.22;0.17;;;3.10;99.90;;;;;;4991036;28;20137;-73
2024/03/17 04:59:56;;;;;;;0.43;0.32;;;3.10;99.90;;;;;;4990500;28;20158;-74
2024/03/17 05:02:23;;;;;;;1.20;0.75;;;3.20;99.90;;;;;;4990048;28;20081;-74
2024/03/17 05:04:50;;;;;;;4.38;0.77;;;3.20;99.90;;;;;;4987777;28;20050;-74
2024/03/17 05:07:15;;;;;;;0.32;0.25;;;3.30;99.90;;;;;;4989145;28;20034;-74
2024/03/17 05:09:43;;;;;;;1.25;0.70;;;3.30;99.90;;;;;;4989521;28;20042;-73
2024/03/17 05:12:09;;;;;;;0.45;0.38;;;3.30;99.90;;;;;;4987253;28;20038;-74
2024/03/17 05:14:35;;;;;;;1.38;0.93;;;3.40;99.90;;;;;;4989584;28;20475;-74
2024/03/17 05:17:01;;;;;;;1.30;0.77;;;3.40;99.90;;;;;;4988513;28;20031;-74
2024/03/17 05:19:27;;;;;;;0.20;0.20;;;3.40;99.90;;;;;;5005239;28;20049;-73
2024/03/17 05:21:53;;;;;;;1.50;0.70;;;3.50;99.90;;;;;;4975425;28;20078;-73
2024/03/17 05:24:19;;;;;;;4.78;0.73;;;3.50;99.90;;;;;;4993945;28;20520;-74
2024/03/17 05:26:45;;;;;;;1.17;0.47;;;3.50;99.90;;;;;;4987667;28;20046;-73
2024/03/17 05:29:11;;;;;;;0.57;0.38;;;3.50;99.90;;;;;;4985467;28;20034;-74
2024/03/17 05:31:39;;;;;;;0.60;0.52;;;3.60;99.90;;;;;;4985445;28;20046;-74
2024/03/17 05:34:06;;;;;;;0.57;0.40;;;3.60;99.90;;;;;;4983795;28;20064;-74
2024/03/17 05:36:33;;;;;;;1.98;0.73;;;3.50;99.90;;;;;;4988146;28;20053;-74
2024/03/17 05:38:59;;;;;;;0.80;0.60;;;3.60;99.90;;;;;;4970669;28;20470;-74
2024/03/17 05:41:26;;;;;;;1.63;0.60;;;3.60;99.90;;;;;;4987515;28;20060;-75
2024/03/17 05:43:51;;;;;;;0.25;0.20;;;3.60;99.90;;;;;;4988480;28;20045;-74
2024/03/17 05:46:17;;;;;;;2.80;0.75;;;3.60;99.90;;;;;;5003773;28;20042;-74
2024/03/17 05:48:43;;;;;;;0.43;0.17;;;3.70;99.90;;;;;;4987465;28;20045;-75
2024/03/17 05:51:12;;;;;;;0.35;0.30;;;3.70;99.90;;;;;;5003341;28;20042;-75
2024/03/17 05:53:44;;;;;;;1.55;0.50;;;3.70;99.90;;;;;;5004596;28;20048;-75
2024/03/17 05:56:11;;;;;;;0.47;0.43;;;3.70;99.90;;;;;;4980878;28;20038;-75
2024/03/17 05:58:37;;;;;;;6.57;0.93;;;3.80;99.90;;;;;;4988848;28;20478;-75
2024/03/17 06:01:03;;;;;;;0.50;0.40;;;3.80;99.90;;;;;;5000604;28;20045;-75
2024/03/17 06:03:29;;;;;;;1.52;0.32;;;3.80;99.90;;;;;;4988571;28;20048;-75
2024/03/17 06:05:55;;;;;;;1.38;0.50;;;3.90;99.90;;;;;;4988073;28;20046;-75
2024/03/17 06:08:21;;;;;;;2.30;0.82;;;3.90;99.90;;;;;;4987482;28;20046;-74
2024/03/17 06:10:48;;;;;;;1.15;0.60;;;4.00;99.90;;;;;;4983698;28;20495;-75
2024/03/17 06:13:18;;;;;;;2.05;0.57;;;4.00;99.90;;;;;;4985949;28;20085;-75
2024/03/17 06:15:44;;;;;;;5.85;1.27;;;4.10;99.90;;;;;;4986774;28;20402;-75
2024/03/17 06:18:14;;;;;;;2.78;0.63;;;4.10;99.90;;;;;;4984403;28;20030;-75
2024/03/17 06:20:45;;;;;;;1.00;0.55;;;4.20;99.90;;;;;;4988651;28;20494;-74
2024/03/17 06:23:11;;;;;;;2.92;1.05;;;4.20;99.90;;;;;;4984694;28;20066;-75
2024/03/17 06:25:41;;;;;;;0.50;0.50;;;4.30;99.90;;;;;;4987440;28;20491;-75
2024/03/17 06:28:08;;;;;;;3.55;0.95;;;4.30;99.90;;;;;;5002521;28;20043;-75
2024/03/17 06:30:35;;;;;;;0.40;0.30;;;4.40;99.90;;;;;;4987174;28;20359;-75
2024/03/17 06:33:01;;;;;;;0.70;0.60;;;4.50;99.90;;;;;;5000757;28;20046;-75
2024/03/17 06:35:30;;;;;;;2.47;0.80;;;4.50;99.90;;;;;;4998181;28;20035;-75
2024/03/17 06:37:59;;;;;;;1.40;0.45;;;4.60;99.90;;;;;;4985344;28;20042;-75
2024/03/17 06:40:25;;;;;;;4.95;1.13;;;4.70;99.90;;;;;;5000357;28;20121;-75
2024/03/17 06:42:52;;;;;;;0.30;0.30;;;4.70;99.90;;;;;;5004196;28;20129;-75
2024/03/17 06:45:20;;;;;;;0.68;0.40;;;4.80;99.90;;;;;;4989389;28;20061;-75
2024/03/17 06:47:46;;;;;;;1.40;0.75;;;4.80;99.90;;;;;;4987090;28;20399;-74
2024/03/17 06:50:12;;;;;;;4.55;0.70;;;4.90;99.90;;;;;;4986843;28;20508;-75
2024/03/17 06:52:38;;;;;;;2.60;0.95;;;4.90;99.90;;;;;;5004809;28;20121;-75
2024/03/17 06:55:05;;;;;;;2.35;0.77;;;5.10;99.90;;;;;;4986611;28;20043;-75
2024/03/17 06:57:33;;;;;;;3.78;0.80;;;5.00;99.90;;;;;;4987995;28;20073;-75
2024/03/17 07:00:05;;;;;;;0.70;0.57;;;5.10;99.90;;;;;;4986977;28;20457;-75
2024/03/17 07:02:34;;;;;;;2.00;0.55;;;5.10;99.90;;;;;;5003315;28;20479;-75
2024/03/17 07:04:59;;;;;;;8.45;0.93;;;5.20;99.90;;;;;;4986844;28;20073;-75
2024/03/17 07:07:28;;;;;;;4.72;1.30;;;5.20;99.90;;;;;;4986120;28;20077;-76
2024/03/17 07:09:54;;;;;;;0.20;0.20;;;5.30;99.90;;;;;;4987388;28;20177;-75
2024/03/17 07:12:20;;;;;;;0.30;0.30;;;5.40;99.90;;;;;;4981655;28;20117;-75
2024/03/17 07:14:46;;;;;;;1.77;1.08;;;5.40;99.90;;;;;;4984456;28;20064;-75
2024/03/17 07:17:11;;;;;;;0.82;0.68;;;5.50;99.90;;;;;;4998048;28;20414;-76
2024/03/17 07:19:37;;;;;;;1.17;0.43;;;5.50;99.90;;;;;;5000932;28;20108;-75
2024/03/17 07:22:03;;;;;;;2.60;1.38;;;5.50;99.90;;;;;;4986030;28;20582;-75
2024/03/17 07:24:30;;;;;;;1.15;0.43;;;5.60;99.90;;;;;;4986770;28;20046;-75
2024/03/17 07:26:55;;;;;;;0.52;0.45;;;5.70;99.90;;;;;;4970969;28;20061;-76
2024/03/17 07:29:21;;;;;;;3.10;0.98;;;5.90;99.90;;;;;;4988454;28;20042;-75
2024/03/17 07:31:47;;;;;;;0.47;0.38;;;6.00;99.90;;;;;;4985763;28;20105;-75
2024/03/17 07:34:13;;;;;;;1.25;0.40;;;6.10;99.90;;;;;;4986317;28;20034;-75
2024/03/17 07:36:39;;;;;;;2.20;0.63;;;6.30;99.90;;;;;;4998751;28;20039;-75
2024/03/17 07:39:07;;;;;;;0.65;0.40;;;6.40;99.90;;;;;;4984451;28;20603;-75
2024/03/17 07:41:32;;;;;;;1.55;0.95;;;6.60;99.90;;;;;;4988398;28;20046;-76
2024/03/17 07:43:58;;;;;;;1.77;0.90;;;6.80;99.90;;;;;;4987723;28;20050;-76
2024/03/17 07:46:24;;;;;;;0.68;0.40;;;7.00;99.90;;;;;;5003777;28;20039;-75
2024/03/17 07:48:50;;;;;;;0.82;0.60;;;7.30;99.90;;;;;;4987776;28;20043;-75
2024/03/17 07:51:17;;;;;;;2.22;0.75;;;7.40;99.90;;;;;;4984887;28;20043;-75
2024/03/17 07:53:47;;;;;;;1.52;0.75;;;7.70;99.90;;;;;;4973351;28;20100;-76
2024/03/17 07:56:14;;;;;;;4.75;1.08;;;8.00;99.90;;;;;;4982414;28;20482;-76
2024/03/17 07:58:42;;;;;;;1.38;0.45;;;8.20;99.90;;;;;;4964515;28;21353;-76
2024/03/17 08:01:10;;;;;;;0.90;0.63;;;8.20;99.90;;;;;;4986836;28;20550;-76
2024/03/17 08:03:37;;;;;;;1.27;0.73;;;8.00;99.90;;;;;;4984658;28;20053;-77
2024/03/17 08:06:06;;;;;;;4.40;1.20;;;8.00;99.90;;;;;;4985608;28;20051;-76
2024/03/17 08:08:33;;;;;;;2.38;0.77;;;7.90;99.90;;;;;;4994385;28;20038;-76
2024/03/17 08:11:00;;;;;;;0.98;0.60;;;7.90;99.90;;;;;;4983198;28;20046;-76
2024/03/17 08:13:28;;;;;;;2.53;0.98;;;8.00;99.90;;;;;;5000957;28;20060;-76
2024/03/17 08:15:59;;;;;;;2.67;0.65;;;8.00;99.90;;;;;;4990065;28;20043;-77
2024/03/17 08:18:26;;;;;;;1.23;0.60;;;8.10;99.90;;;;;;5005126;28;20042;-76
2024/03/17 08:20:54;;;;;;;0.93;0.70;;;8.20;99.90;;;;;;4987722;28;20073;-76
2024/03/17 08:23:20;;;;;;;1.75;0.60;;;8.50;99.90;;;;;;4990332;28;20038;-76
2024/03/17 08:26:00;;;;;;;0.73;0.50;;;8.50;99.90;;;;;;4985435;28;20049;-76
2024/03/17 08:28:27;;;;;;;1.55;0.70;;;8.50;99.90;;;;;;4991468;28;20050;-76
2024/03/17 08:30:58;;;;;;;1.30;0.60;;;8.40;99.90;;;;;;4990895;28;20057;-76
2024/03/17 08:33:24;;;;;;;0.93;0.75;;;8.40;99.90;;;;;;4986399;28;20046;-76
2024/03/17 08:35:58;;;;;;;3.42;1.65;;;8.40;99.90;;;;;;4986969;28;20089;-76
2024/03/17 08:38:24;;;;;;;3.63;1.20;;;8.50;99.90;;;;;;5004873;28;20402;-76
2024/03/17 08:40:54;;;;;;;1.55;1.02;;;8.60;99.90;;;;;;4989935;28;20100;-78
2024/03/17 08:43:21;;;;;;;1.95;1.02;;;8.80;99.90;;;;;;4974953;28;20045;-76
2024/03/17 08:46:06;;;;;;;2.28;0.88;;;9.20;99.90;;;;;;4988366;28;20038;-77
2024/03/17 08:48:33;;;;;;;2.22;1.42;;;9.60;99.90;;;;;;4988251;28;20448;-76
2024/03/17 08:51:01;;;;;;;3.13;1.20;;;9.80;99.90;;;;;;4990662;28;20038;-76
2024/03/17 08:53:27;;;;;;;3.67;1.38;;;9.90;99.90;;;;;;4988566;28;20038;-76
2024/03/17 08:55:54;;;;;;;2.45;1.17;;;9.70;99.90;;;;;;4975140;28;20136;-76
2024/03/17 08:58:20;;;;;;;2.13;1.38;;;9.60;99.90;;;;;;4989641;28;20042;-77
2024/03/17 09:00:46;;;;;;;6.45;2.65;;;9.50;99.90;;;;;;4991554;28;20177;-76
2024/03/17 09:03:12;;;;;;;5.78;1.45;;;9.50;99.90;;;;;;5007732;28;20410;-76
2024/03/17 09:05:48;;;;;;;1.80;1.10;;;9.60;99.90;;;;;;4988627;28;20181;-76
2024/03/17 09:08:22;;;;;;;1.98;1.17;;;9.90;99.90;;;;;;4998403;28;20034;-76
2024/03/17 09:10:52;;;;;;;2.27;1.03;;;10.30;99.90;;;;;;4979184;28;20046;-76
2024/03/17 09:13:20;;;;;;;2.63;1.80;;;10.80;99.90;;;;;;4987742;28;20277;-77
2024/03/17 09:15:53;;;;;;;3.50;2.10;;;11.50;99.90;;;;;;4999464;28;20046;-76
2024/03/17 09:18:18;;;;;;;3.05;2.35;;;12.00;99.90;;;;;;5005649;28;20081;-76
2024/03/17 09:20:45;;;;;;;3.22;1.73;;;12.40;99.90;;;;;;4975283;28;20100;-75
2024/03/17 09:23:11;;;;;;;2.67;1.55;;;12.90;99.90;;;;;;4990292;28;20066;-76
2024/03/17 09:25:37;;;;;;;1.95;1.13;;;13.50;99.90;;;;;;5006256;28;20263;-76
2024/03/17 09:28:03;;;;;;;3.33;1.73;;;13.70;99.90;;;;;;4993934;28;20046;-76
2024/03/17 09:30:29;;;;;;;3.05;1.92;;;13.60;99.90;;;;;;4986193;28;20054;-77
2024/03/17 09:32:54;;;;;;;2.58;1.52;;;13.30;99.90;;;;;;4974479;28;20034;-76
2024/03/17 09:35:20;;;;;;;1.58;1.48;;;12.90;99.90;;;;;;4990297;28;20050;-76
2024/03/17 09:37:46;;;;;;;5.95;1.80;;;12.40;99.90;;;;;;4990280;28;20049;-76
2024/03/17 09:40:15;;;;;;;3.83;1.75;;;11.90;99.90;;;;;;4987573;28;20494;-76
2024/03/17 09:42:43;;;;;;;4.05;1.42;;;11.70;99.90;;;;;;4988659;28;20042;-76
2024/03/17 09:45:10;;;;;;;5.80;2.03;;;11.60;99.90;;;;;;4984702;28;20101;-76
2024/03/17 09:47:37;;;;;;;5.93;2.03;;;11.70;99.90;;;;;;5006206;28;20051;-77
2024/03/17 09:50:02;;;;;;;4.70;1.80;;;11.70;99.90;;;;;;4995245;28;20038;-76
2024/03/17 09:52:29;;;;;;;3.30;1.73;;;11.80;99.90;;;;;;4990265;28;20560;-77
2024/03/17 09:55:01;;;;;;;6.30;1.67;;;11.70;99.90;;;;;;4989400;28;20038;-76
2024/03/17 09:57:28;;;;;;;4.20;2.10;;;11.70;99.90;;;;;;4985691;28;20134;-76
2024/03/17 09:59:55;;;;;;;5.03;1.30;;;11.60;99.90;;;;;;4986441;28;20562;-76
2024/03/17 10:02:21;;;;;;;5.30;1.55;;;11.50;99.90;;;;;;4986535;28;20451;-76
2024/03/17 10:04:47;;;;;;;5.10;2.53;;;11.40;99.90;;;;;;4985199;28;20038;-76
2024/03/17 10:07:16;;;;;;;4.13;1.30;;;11.40;99.90;;;;;;4986472;28;20042;-76
2024/03/17 10:09:46;;;;;;;3.88;2.13;;;11.40;99.90;;;;;;4988030;28;20081;-76
2024/03/17 10:12:28;;;;;;;4.15;1.52;;;11.40;99.90;;;;;;4989626;28;20038;-76
2024/03/17 10:15:01;;;;;;;2.58;1.73;;;11.50;99.90;;;;;;4989112;28;20050;-76
2024/03/17 10:17:35;;;;;;;4.47;1.55;;;11.60;99.90;;;;;;4989869;28;20125;-76
2024/03/17 10:20:18;;;;;;;2.53;1.23;;;11.70;99.90;;;;;;5002747;28;20046;-76
2024/03/17 10:23:00;;;;;;;3.42;1.60;;;11.80;99.90;;;;;;4989867;28;20046;-75
2024/03/17 10:25:27;;;;;;;3.30;1.63;;;11.80;99.90;;;;;;4986381;28;20048;-76
2024/03/17 10:27:54;;;;;;;4.50;1.67;;;11.80;99.90;;;;;;4987058;28;20702;-76
2024/03/17 10:30:21;;;;;;;2.22;1.63;;;11.80;99.90;;;;;;4989668;28;20124;-76
2024/03/17 10:32:53;;;;;;;5.05;1.58;;;11.80;99.90;;;;;;4987777;28;20034;-76
2024/03/17 10:35:48;;;;;;;2.28;1.42;;;11.70;99.90;;;;;;4989069;28;20129;-76
2024/03/17 10:38:14;;;;;;;3.40;1.45;;;11.60;99.90;;;;;;4998135;28;20455;-77
2024/03/17 10:40:42;;;;;;;2.10;1.48;;;11.60;99.90;;;;;;5001621;28;20050;-76
2024/03/17 10:43:11;;;;;;;3.05;1.40;;;11.60;99.90;;;;;;4984776;28;20054;-76
2024/03/17 10:45:38;;;;;;;3.83;1.25;;;11.50;99.90;;;;;;4978888;28;20058;-77
2024/03/17 10:48:08;;;;;;;2.72;1.20;;;11.50;99.90;;;;;;4973258;28;20121;-76
2024/03/17 10:50:38;;;;;;;2.63;1.27;;;11.40;99.90;;;;;;4995910;28;20061;-76
2024/03/17 10:53:08;;;;;;;1.63;1.15;;;11.40;99.90;;;;;;4986821;28;20121;-77
2024/03/17 10:55:46;;;;;;;2.22;1.20;;;11.50;99.90;;;;;;4987397;28;20046;-76
2024/03/17 10:58:31;;;;;;;3.08;1.33;;;11.40;99.90;;;;;;4985011;28;20058;-77
2024/03/17 11:00:58;;;;;;;2.85;1.60;;;11.50;99.90;;;;;;4981931;28;20051;-77
2024/03/17 11:03:24;;;;;;;2.10;1.25;;;11.50;99.90;;;;;;4986065;28;20038;-77
2024/03/17 11:05:52;;;;;;;3.22;1.40;;;11.50;99.90;;;;;;4972578;28;20053;-76
2024/03/17 11:08:18;;;;;;;4.10;1.02;;;11.50;99.90;;;;;;4984756;28;20411;-77
2024/03/17 11:10:54;;;;;;;1.88;1.38;;;11.50;99.90;;;;;;4984009;28;20313;-76
2024/03/17 11:13:27;;;;;;;3.92;1.45;;;11.50;99.90;;;;;;4973054;28;20042;-76
2024/03/17 11:15:57;;;;;;;2.00;1.48;;;11.50;99.90;;;;;;4988059;28;20510;-76
2024/03/17 11:18:23;;;;;;;3.95;1.77;;;11.40;99.90;;;;;;4988389;28;20096;-77
2024/03/17 11:21:01;;;;;;;3.15;1.80;;;11.50;99.90;;;;;;4983814;28;20050;-76
2024/03/17 11:23:28;;;;;;;2.53;1.45;;;11.40;99.90;;;;;;4992808;28;20062;-76
2024/03/17 11:25:54;;;;;;;4.78;1.88;;;11.40;99.90;;;;;;4987449;28;20501;-77
2024/03/17 11:28:45;;;;;;;3.90;2.20;;;11.40;99.90;;;;;;5003249;28;20070;-76
2024/03/17 11:31:33;;;;;;;3.60;2.17;;;11.50;99.90;;;;;;4986736;28;20513;-77
2024/03/17 11:34:03;;;;;;;2.67;1.85;;;11.50;99.90;;;;;;4986321;28;20057;-74
2024/03/17 11:36:28;;;;;;;5.57;1.60;;;11.70;99.90;;;;;;4986774;28;20065;-77
2024/03/17 11:39:23;;;;;;;3.72;1.75;;;11.80;99.90;;;;;;4987501;28;20034;-77
2024/03/17 11:41:50;;;;;;;2.23;1.50;;;11.90;99.90;;;;;;4988509;28;20069;-76
2024/03/17 11:44:18;;;;;;;1.70;1.27;;;12.00;99.90;;;;;;4969702;28;20050;-77
2024/03/17 11:46:55;;;;;;;2.47;1.77;;;12.00;99.90;;;;;;4987146;28;20380;-76
2024/03/17 11:49:39;;;;;;;4.13;1.92;;;12.20;99.90;;;;;;4991337;28;20038;-77
2024/03/17 11:52:15;;;;;;;3.80;2.28;;;12.30;99.90;;;;;;4984522;28;20387;-77
2024/03/17 11:54:45;;;;;;;3.97;1.50;;;12.50;99.90;;;;;;4985261;28;20398;-77
2024/03/17 11:57:22;;;;;;;2.30;1.60;;;12.60;99.90;;;;;;4990273;28;20434;-77
2024/03/17 11:59:48;;;;;;;2.80;1.70;;;12.60;99.90;;;;;;4987584;28;20043;-77
2024/03/17 12:02:21;;;;;;;1.70;1.30;;;12.60;99.90;;;;;;5008561;28;20125;-77
2024/03/17 12:04:48;;;;;;;5.47;2.38;;;12.60;99.90;;;;;;4998449;28;20085;-76
2024/03/17 12:07:18;;;;;;;2.50;1.60;;;12.50;99.90;;;;;;4987725;28;20053;-77
2024/03/17 12:09:48;;;;;;;1.58;1.30;;;12.50;99.90;;;;;;5003941;28;20076;-77
2024/03/17 12:12:22;;;;;;;3.35;1.48;;;12.40;99.90;;;;;;4975792;28;20179;-76
2024/03/17 12:14:50;;;;;;;4.38;1.67;;;12.30;99.90;;;;;;4985976;28;20053;-76
2024/03/17 12:17:22;;;;;;;3.45;1.60;;;12.20;99.90;;;;;;4976169;28;20035;-77
2024/03/17 12:19:48;;;;;;;2.40;1.60;;;12.10;99.90;;;;;;4989926;28;20061;-76
2024/03/17 12:22:21;;;;;;;1.88;1.52;;;12.10;99.90;;;;;;4991696;28;20046;-76
2024/03/17 12:24:49;;;;;;;4.35;2.08;;;12.00;99.90;;;;;;4990900;28;20555;-77
2024/03/17 12:27:20;;;;;;;1.95;1.55;;;12.00;99.90;;;;;;5001091;28;20194;-76
2024/03/17 12:29:48;;;;;;;2.10;1.45;;;12.00;99.90;;;;;;4974036;28;20051;-76
2024/03/17 12:32:20;;;;;;;2.53;1.80;;;12.00;99.90;;;;;;4992576;28;20046;-76
2024/03/17 12:34:50;;;;;;;1.98;1.27;;;12.00;99.90;;;;;;4987432;28;20053;-76
2024/03/17 12:37:20;;;;;;;1.88;1.35;;;12.00;99.90;;;;;;4969194;28;20137;-76
2024/03/17 12:39:47;;;;;;;2.33;1.65;;;12.00;99.90;;;;;;4988842;28;20530;-76
2024/03/17 12:42:22;;;;;;;4.18;1.83;;;12.10;99.90;;;;;;4992623;28;20379;-76
2024/03/17 12:44:58;;;;;;;2.60;1.63;;;12.10;99.90;;;;;;4979750;28;20047;-76
2024/03/17 12:47:25;;;;;;;3.05;1.75;;;12.10;99.90;;;;;;4972700;28;20133;-76
2024/03/17 12:49:56;;;;;;;2.65;1.48;;;12.20;99.90;;;;;;4975206;28;20165;-77
2024/03/17 12:52:27;;;;;;;1.77;1.10;;;12.20;99.90;;;;;;4974188;28;20042;-76
2024/03/17 13:00:45;;;;;;;2.58;1.67;;;12.40;99.90;;;;;;4990033;28;20137;-76
2024/03/17 13:03:26;;;;;;;2.40;1.00;;;12.50;99.90;;;;;;5007124;28;20476;-75
2024/03/17 13:05:52;;;;;;;2.78;2.05;;;12.60;99.90;;;;;;5005999;28;20054;-76